Sheregesh, Russia
Current Conditions -  °F | °C
As of 5:30 PM on Sunday 23 Nov 2014 (Local Time) from UNAA Reporting Station
Broken Clouds Broken Clouds  
Wind Chill: 21°   Ceiling: 10000
Heat Index: 28°   Visibility: 6mi
Dew Point: 12°   Wind: 7mph
Humidity: 51%   Direction: 170°S
Pressure: 29.83"   Gusts: NA
Location:  52.95°N, 88.03°E
Report Text: UNAA 231030Z 17003MPS 9999 SCT030CB BKN100 M02/M11 Q1010 NOSIGRMK QFE735 20190055
Loading
Personal Weather Stations






























Interactive Weather Map New forecast layout! Learn more

10-Day Weather Forecast

Advertisements
Track Severe Weather on mobile